Time;durP1;ratioP1;P1;durP2;ratioP2;P2;SDS_P1;SDS_P2;PMS_P1;PMS_P2;Temp;Humidity;BMP_temperature;BMP_pressure;BME280_temperature;BME280_humidity;BME280_pressure;Samples;Min_cycle;Max_cycle;Signal;HPM_P1;HPM_P2
2022/10/16 00:01:51;;;;;;;4.95;2.10;;;14.40;99.90;;;;;;5072987;28;20024;-67
2022/10/16 00:04:17;;;;;;;4.43;1.75;;;14.40;99.90;;;;;;5072512;28;20386;-66
2022/10/16 00:06:43;;;;;;;1.98;1.67;;;14.40;99.90;;;;;;5072835;28;20056;-66
2022/10/16 00:09:09;;;;;;;3.63;1.88;;;14.30;99.90;;;;;;5072612;28;20054;-66
2022/10/16 00:11:37;;;;;;;2.60;1.48;;;14.30;99.90;;;;;;5073120;28;20028;-66
2022/10/16 00:14:06;;;;;;;7.93;1.90;;;14.40;99.90;;;;;;5072454;28;20028;-66
2022/10/16 00:16:33;;;;;;;4.75;1.80;;;14.30;99.90;;;;;;5072397;28;20033;-66
2022/10/16 00:18:59;;;;;;;3.33;2.10;;;14.20;99.90;;;;;;5072360;28;20029;-66
2022/10/16 00:21:27;;;;;;;2.97;1.50;;;14.20;99.90;;;;;;5072322;28;20447;-70
2022/10/16 00:24:19;;;;;;;6.00;1.98;;;14.30;99.90;;;;;;5072384;28;20046;-71
2022/10/16 00:26:45;;;;;;;2.45;1.40;;;14.30;99.90;;;;;;5067709;28;20041;-71
2022/10/16 00:29:11;;;;;;;5.93;1.70;;;14.40;99.90;;;;;;5072585;28;20082;-71
2022/10/16 00:31:37;;;;;;;2.08;1.40;;;14.30;99.90;;;;;;5054473;28;20029;-71
2022/10/16 00:34:03;;;;;;;2.67;1.38;;;14.20;99.90;;;;;;5071570;28;20405;-71
2022/10/16 00:36:29;;;;;;;7.75;2.40;;;14.20;99.90;;;;;;5072378;28;20021;-71
2022/10/16 00:38:57;;;;;;;3.63;1.40;;;14.10;99.90;;;;;;5072922;28;20040;-71
2022/10/16 00:41:24;;;;;;;5.82;1.48;;;14.10;99.90;;;;;;5071102;28;20456;-71
2022/10/16 00:43:59;;;;;;;2.45;1.48;;;14.10;99.90;;;;;;5072439;28;20024;-71
2022/10/16 00:46:30;;;;;;;6.00;1.17;;;14.10;99.90;;;;;;5071740;28;20037;-71
2022/10/16 00:49:12;;;;;;;3.33;1.40;;;14.20;99.90;;;;;;5072710;28;20061;-70
2022/10/16 00:51:47;;;;;;;4.45;1.30;;;14.10;99.90;;;;;;5072530;28;20037;-72
2022/10/16 00:54:17;;;;;;;5.05;1.60;;;14.00;99.90;;;;;;5072179;28;20028;-71
2022/10/16 00:56:44;;;;;;;5.35;1.30;;;14.10;99.90;;;;;;5073046;28;20032;-71
2022/10/16 00:59:33;;;;;;;3.00;1.75;;;14.10;99.90;;;;;;5054381;28;20451;-71
2022/10/16 01:01:59;;;;;;;3.50;1.30;;;14.10;99.90;;;;;;5072028;28;20039;-71
2022/10/16 01:04:27;;;;;;;1.95;1.23;;;14.20;99.90;;;;;;5071664;28;20067;-68
2022/10/16 01:07:32;;;;;;;1.20;1.10;;;14.20;99.90;;;;;;5072671;28;20119;-70
2022/10/16 01:10:10;;;;;;;5.38;1.20;;;14.10;99.90;;;;;;5056552;28;20079;-67
2022/10/16 01:12:44;;;;;;;5.53;1.60;;;14.00;99.90;;;;;;5058517;28;20036;-66
2022/10/16 01:15:18;;;;;;;2.60;1.30;;;14.10;99.90;;;;;;5072028;28;20035;-67
2022/10/16 01:17:52;;;;;;;3.65;1.48;;;14.00;99.90;;;;;;5071228;28;20465;-66
2022/10/16 01:20:37;;;;;;;4.90;1.33;;;14.00;99.90;;;;;;5053807;28;20070;-67
2022/10/16 01:23:24;;;;;;;5.10;1.50;;;14.00;99.90;;;;;;5060375;28;20024;-67
2022/10/16 01:25:56;;;;;;;5.28;1.20;;;14.00;99.90;;;;;;5054066;28;20039;-67
2022/10/16 01:28:30;;;;;;;2.53;1.15;;;14.00;99.90;;;;;;5072420;28;20124;-66
2022/10/16 01:30:59;;;;;;;2.15;1.20;;;14.10;99.90;;;;;;5071756;28;20071;-67
2022/10/16 01:33:37;;;;;;;2.90;1.15;;;13.90;99.90;;;;;;5071483;28;20493;-69
2022/10/16 01:36:10;;;;;;;2.78;1.40;;;13.90;99.90;;;;;;5053329;28;20113;-69
2022/10/16 01:38:38;;;;;;;3.80;1.17;;;14.00;99.90;;;;;;5071694;28;20491;-66
2022/10/16 01:41:19;;;;;;;3.40;1.50;;;14.00;99.90;;;;;;5053453;28;20029;-66
2022/10/16 01:43:49;;;;;;;3.25;1.77;;;13.90;99.90;;;;;;5071753;28;20469;-66
2022/10/16 01:46:19;;;;;;;2.97;1.17;;;13.90;99.90;;;;;;5071549;28;20433;-66
2022/10/16 01:48:45;;;;;;;2.25;1.40;;;13.80;99.90;;;;;;5070821;28;20070;-67
2022/10/16 01:51:14;;;;;;;3.35;1.42;;;13.80;99.90;;;;;;5071443;28;20031;-66
2022/10/16 01:53:42;;;;;;;4.65;1.23;;;13.70;99.90;;;;;;5071792;28;20119;-66
2022/10/16 01:56:11;;;;;;;2.67;1.25;;;13.60;99.90;;;;;;5071884;28;20520;-67
2022/10/16 01:58:42;;;;;;;2.97;1.60;;;13.70;99.90;;;;;;5071727;28;20032;-66
2022/10/16 02:01:11;;;;;;;4.32;1.38;;;13.70;99.90;;;;;;5071691;28;20066;-66
2022/10/16 02:03:40;;;;;;;2.15;1.30;;;13.80;99.90;;;;;;5071268;28;20024;-67
2022/10/16 02:06:07;;;;;;;3.88;1.33;;;13.70;99.90;;;;;;5053849;28;20025;-66
2022/10/16 02:08:33;;;;;;;5.22;1.40;;;13.70;99.90;;;;;;5071133;28;20029;-66
2022/10/16 02:11:00;;;;;;;3.50;1.42;;;13.70;99.90;;;;;;5071117;28;20020;-67
2022/10/16 02:13:32;;;;;;;3.72;1.20;;;13.60;99.90;;;;;;5073332;28;20032;-66
2022/10/16 02:15:58;;;;;;;2.15;1.15;;;13.60;99.90;;;;;;5075282;28;20028;-66
2022/10/16 02:18:28;;;;;;;2.42;1.20;;;13.70;99.90;;;;;;5074419;28;20078;-66
2022/10/16 02:21:25;;;;;;;2.47;1.25;;;13.80;99.90;;;;;;5074585;28;20460;-66
2022/10/16 02:24:13;;;;;;;2.95;1.10;;;13.70;99.90;;;;;;5056446;28;20401;-66
2022/10/16 02:26:47;;;;;;;8.70;1.17;;;13.90;99.90;;;;;;5056263;28;20094;-71
2022/10/16 02:29:18;;;;;;;3.63;1.30;;;13.70;99.90;;;;;;5075279;28;20033;-70
2022/10/16 02:31:49;;;;;;;5.60;1.50;;;13.60;99.90;;;;;;5074791;28;20032;-71
2022/10/16 02:34:18;;;;;;;2.53;1.50;;;13.70;99.90;;;;;;5056509;28;20052;-71
2022/10/16 02:36:45;;;;;;;8.20;1.58;;;13.80;99.90;;;;;;5074871;28;20028;-70
2022/10/16 02:39:11;;;;;;;2.05;1.13;;;13.90;99.90;;;;;;5074541;28;20440;-71
2022/10/16 02:41:38;;;;;;;4.18;1.50;;;13.80;99.90;;;;;;5075032;28;20032;-71
2022/10/16 02:44:04;;;;;;;4.97;1.63;;;13.80;99.90;;;;;;5074436;28;20091;-71
2022/10/16 02:46:29;;;;;;;6.50;1.67;;;13.80;99.90;;;;;;5074817;28;20158;-66
2022/10/16 02:48:55;;;;;;;4.13;1.48;;;13.80;99.90;;;;;;5074181;28;20109;-68
2022/10/16 02:51:21;;;;;;;5.93;1.60;;;13.70;99.90;;;;;;5073836;28;20025;-66
2022/10/16 02:53:46;;;;;;;3.92;1.35;;;13.70;99.90;;;;;;5073389;28;20032;-66
2022/10/16 02:56:12;;;;;;;2.70;1.27;;;13.70;99.90;;;;;;5074753;28;20035;-66
2022/10/16 02:58:38;;;;;;;3.97;1.45;;;13.70;99.90;;;;;;5074525;28;20035;-66
2022/10/16 03:01:03;;;;;;;4.07;1.35;;;13.70;99.90;;;;;;5055509;28;20033;-67
2022/10/16 03:03:29;;;;;;;3.78;1.15;;;13.60;99.90;;;;;;5073941;28;20025;-67
2022/10/16 03:05:55;;;;;;;4.70;1.95;;;13.60;99.90;;;;;;5074460;28;20033;-67
2022/10/16 03:08:23;;;;;;;4.65;1.60;;;13.70;99.90;;;;;;5074156;28;20062;-66
2022/10/16 03:10:50;;;;;;;2.63;1.30;;;13.70;99.90;;;;;;5073913;28;20515;-66
2022/10/16 03:13:16;;;;;;;4.28;1.55;;;13.70;99.90;;;;;;5074121;28;20046;-66
2022/10/16 03:15:42;;;;;;;5.93;1.83;;;13.60;99.90;;;;;;5073899;28;20462;-67
2022/10/16 03:18:07;;;;;;;10.95;1.70;;;13.50;99.90;;;;;;5073500;28;20035;-67
2022/10/16 03:20:33;;;;;;;3.25;1.80;;;13.60;99.90;;;;;;5073193;28;20032;-66
2022/10/16 03:22:59;;;;;;;3.45;2.25;;;13.60;99.90;;;;;;5073290;28;20112;-66
2022/10/16 03:25:25;;;;;;;9.40;1.90;;;13.60;99.90;;;;;;5072682;28;20024;-66
2022/10/16 03:27:50;;;;;;;5.03;2.08;;;13.50;99.90;;;;;;5055889;28;20469;-66
2022/10/16 03:30:16;;;;;;;2.35;1.73;;;13.50;99.90;;;;;;5073280;28;20469;-67
2022/10/16 03:32:44;;;;;;;8.13;2.25;;;13.40;99.90;;;;;;5073754;28;20135;-67
2022/10/16 03:35:10;;;;;;;4.18;2.00;;;13.30;99.90;;;;;;5073857;28;20169;-66
2022/10/16 03:37:36;;;;;;;3.40;2.03;;;13.30;99.90;;;;;;5073789;28;20516;-66
2022/10/16 03:40:03;;;;;;;3.42;2.22;;;13.40;99.90;;;;;;5073900;28;20048;-66
2022/10/16 03:42:29;;;;;;;2.83;1.63;;;13.40;99.90;;;;;;5073793;28;20358;-66
2022/10/16 03:44:54;;;;;;;6.13;1.90;;;13.40;99.90;;;;;;5073397;28;20154;-66
2022/10/16 03:47:23;;;;;;;5.75;2.67;;;13.40;99.90;;;;;;5073385;28;20396;-66
2022/10/16 03:49:49;;;;;;;6.03;1.90;;;13.50;99.90;;;;;;5073051;28;20036;-66
2022/10/16 03:52:15;;;;;;;5.57;2.15;;;13.50;99.90;;;;;;5055403;28;20043;-66
2022/10/16 03:54:41;;;;;;;5.00;2.20;;;13.50;99.90;;;;;;5073173;28;20056;-67
2022/10/16 03:57:07;;;;;;;11.80;2.60;;;13.40;99.90;;;;;;5073229;28;20189;-66
2022/10/16 03:59:33;;;;;;;8.18;1.98;;;13.50;99.90;;;;;;5072570;28;20394;-66
2022/10/16 04:01:58;;;;;;;3.97;1.90;;;13.50;99.90;;;;;;5073276;28;20056;-66
2022/10/16 04:04:24;;;;;;;3.30;1.88;;;13.40;99.90;;;;;;5073054;28;20027;-66
2022/10/16 04:06:50;;;;;;;8.65;2.72;;;13.50;99.90;;;;;;5073144;28;20097;-68
2022/10/16 04:09:16;;;;;;;5.07;1.90;;;13.60;99.90;;;;;;5072997;28;20385;-67
2022/10/16 04:11:42;;;;;;;6.32;2.25;;;13.60;99.90;;;;;;5072780;28;20055;-67
2022/10/16 04:14:08;;;;;;;9.02;2.30;;;13.50;99.90;;;;;;5072410;28;20036;-67
2022/10/16 04:16:34;;;;;;;3.72;1.92;;;13.50;99.90;;;;;;5072322;28;20016;-66
2022/10/16 04:19:00;;;;;;;10.35;2.00;;;13.50;99.90;;;;;;5054712;28;20026;-66
2022/10/16 04:21:25;;;;;;;5.47;1.90;;;13.40;99.90;;;;;;5072227;28;20494;-66
2022/10/16 04:23:51;;;;;;;8.95;2.25;;;13.40;99.90;;;;;;5072445;28;20095;-67
2022/10/16 04:26:17;;;;;;;6.35;1.77;;;13.30;99.90;;;;;;5072354;28;20446;-68
2022/10/16 04:28:43;;;;;;;6.10;2.00;;;13.30;99.90;;;;;;5072488;28;20020;-66
2022/10/16 04:31:09;;;;;;;8.15;2.80;;;13.40;99.90;;;;;;5072259;28;20044;-66
2022/10/16 04:33:35;;;;;;;10.73;2.75;;;13.30;99.90;;;;;;5072496;28;20065;-68
2022/10/16 04:36:01;;;;;;;7.53;2.03;;;13.40;99.90;;;;;;5058137;28;20024;-67
2022/10/16 04:38:27;;;;;;;10.45;2.10;;;13.40;99.90;;;;;;5072150;28;20026;-70
2022/10/16 04:40:53;;;;;;;6.93;2.47;;;13.40;99.90;;;;;;5072775;28;20119;-67
2022/10/16 04:43:20;;;;;;;5.88;2.65;;;13.40;99.90;;;;;;5071844;28;20495;-71
2022/10/16 04:45:45;;;;;;;5.20;2.42;;;13.40;99.90;;;;;;5054653;28;20028;-67
2022/10/16 04:48:11;;;;;;;5.82;2.50;;;13.50;99.90;;;;;;5072561;28;20481;-68
2022/10/16 04:50:37;;;;;;;7.82;2.10;;;13.50;99.90;;;;;;5072329;28;20032;-67
2022/10/16 04:53:06;;;;;;;5.07;2.47;;;13.40;99.90;;;;;;5071737;28;20500;-67
2022/10/16 04:55:32;;;;;;;9.27;2.75;;;13.30;99.90;;;;;;5072762;28;20029;-67
2022/10/16 04:57:58;;;;;;;5.78;2.17;;;13.30;99.90;;;;;;5071187;28;20096;-69
2022/10/16 05:00:23;;;;;;;6.47;2.33;;;13.30;99.90;;;;;;5072417;28;20051;-70
2022/10/16 05:02:52;;;;;;;4.70;1.63;;;13.30;99.90;;;;;;5072303;28;20086;-67
2022/10/16 05:05:21;;;;;;;6.63;2.03;;;13.40;99.90;;;;;;5071327;28;20028;-68
2022/10/16 05:07:47;;;;;;;4.70;2.20;;;13.30;99.90;;;;;;5072698;28;20518;-71
2022/10/16 05:10:13;;;;;;;6.40;2.13;;;13.30;99.90;;;;;;5071816;28;20082;-71
2022/10/16 05:12:39;;;;;;;4.82;2.47;;;13.40;99.90;;;;;;5070783;28;20021;-71
2022/10/16 05:15:05;;;;;;;4.07;2.28;;;13.50;99.90;;;;;;5072116;28;20094;-71
2022/10/16 05:17:31;;;;;;;8.25;2.33;;;13.30;99.90;;;;;;5071729;28;20029;-71
2022/10/16 05:19:56;;;;;;;6.20;2.33;;;13.20;99.90;;;;;;5070174;28;20040;-72
2022/10/16 05:22:22;;;;;;;6.60;2.28;;;13.20;99.90;;;;;;5071261;28;20021;-70
2022/10/16 05:24:48;;;;;;;7.40;2.40;;;13.20;99.90;;;;;;5071953;28;20393;-70
2022/10/16 05:27:18;;;;;;;5.05;2.03;;;13.30;99.90;;;;;;5071360;28;20040;-71
2022/10/16 05:29:48;;;;;;;3.28;2.20;;;13.40;99.90;;;;;;5071524;28;20467;-66
2022/10/16 05:32:15;;;;;;;6.13;2.53;;;13.30;99.90;;;;;;5071718;28;20099;-66
2022/10/16 05:34:41;;;;;;;5.95;2.40;;;13.10;99.90;;;;;;5070657;28;20047;-67
2022/10/16 05:37:07;;;;;;;5.53;2.45;;;13.30;99.90;;;;;;5071885;28;20513;-66
2022/10/16 05:39:33;;;;;;;5.38;2.30;;;13.30;99.90;;;;;;5070515;28;20036;-66
2022/10/16 05:41:59;;;;;;;5.90;2.67;;;13.30;99.90;;;;;;5071605;28;20397;-66
2022/10/16 05:44:25;;;;;;;6.32;2.13;;;13.20;99.90;;;;;;5070908;28;20078;-66
2022/10/16 05:46:50;;;;;;;4.55;2.30;;;13.10;99.90;;;;;;5053154;28;20590;-66
2022/10/16 05:49:16;;;;;;;11.95;3.25;;;13.10;99.90;;;;;;5056343;28;20120;-66
2022/10/16 05:51:42;;;;;;;4.65;2.45;;;13.10;99.90;;;;;;5074026;28;20103;-67
2022/10/16 05:54:08;;;;;;;9.32;2.92;;;13.10;99.90;;;;;;5074303;28;20039;-71
2022/10/16 05:56:34;;;;;;;5.75;2.22;;;13.20;99.90;;;;;;5075018;28;20075;-71
2022/10/16 05:59:00;;;;;;;5.93;2.30;;;13.30;99.90;;;;;;5075286;28;20028;-72
2022/10/16 06:01:25;;;;;;;6.10;2.53;;;13.40;99.90;;;;;;5055829;28;20435;-71
2022/10/16 06:03:52;;;;;;;11.93;2.60;;;13.50;99.90;;;;;;5075625;28;20429;-71
2022/10/16 06:06:20;;;;;;;8.70;2.03;;;13.50;99.90;;;;;;5075342;28;20028;-71
2022/10/16 06:08:47;;;;;;;4.97;2.28;;;13.40;99.90;;;;;;5075090;28;20032;-70
2022/10/16 06:11:16;;;;;;;9.75;3.25;;;13.40;99.90;;;;;;5074198;28;20070;-69
2022/10/16 06:13:42;;;;;;;5.43;2.33;;;13.50;99.90;;;;;;5074805;28;20082;-71
2022/10/16 06:16:10;;;;;;;9.07;2.00;;;13.40;99.90;;;;;;5074655;28;20021;-70
2022/10/16 06:18:36;;;;;;;6.28;2.25;;;13.40;99.90;;;;;;5074197;28;20028;-71
2022/10/16 06:21:09;;;;;;;9.77;2.70;;;13.30;99.90;;;;;;5073677;28;20520;-70
2022/10/16 06:23:35;;;;;;;6.97;2.15;;;13.20;99.90;;;;;;5074662;28;20036;-71
2022/10/16 06:26:09;;;;;;;9.77;3.15;;;13.30;99.90;;;;;;5056634;28;20500;-71
2022/10/16 06:28:35;;;;;;;4.90;2.20;;;13.20;99.90;;;;;;5073629;28;20481;-68
2022/10/16 06:31:02;;;;;;;7.65;2.75;;;13.30;99.90;;;;;;5075000;28;20031;-67
2022/10/16 06:33:28;;;;;;;7.63;2.63;;;13.30;99.90;;;;;;5074117;28;20025;-67
2022/10/16 06:35:53;;;;;;;4.00;2.03;;;13.40;99.90;;;;;;5074716;28;20487;-67
2022/10/16 06:38:19;;;;;;;4.95;2.22;;;13.30;99.90;;;;;;5074870;28;20112;-67
2022/10/16 06:40:45;;;;;;;9.65;3.00;;;13.40;99.90;;;;;;5074118;28;20131;-69
2022/10/16 06:43:11;;;;;;;8.35;2.70;;;13.50;99.90;;;;;;5055779;28;20108;-67
2022/10/16 06:45:36;;;;;;;10.57;2.97;;;13.50;99.90;;;;;;5074713;28;20033;-67
2022/10/16 06:48:02;;;;;;;7.05;2.90;;;13.50;99.90;;;;;;5074827;28;20035;-66
2022/10/16 06:50:28;;;;;;;8.52;3.22;;;13.60;99.90;;;;;;5073787;28;20029;-66
2022/10/16 06:52:54;;;;;;;5.70;2.20;;;13.60;99.90;;;;;;5073319;28;20025;-66
2022/10/16 06:55:19;;;;;;;11.15;2.60;;;13.60;99.90;;;;;;5074690;28;20401;-67
2022/10/16 06:57:48;;;;;;;3.42;2.38;;;13.60;99.90;;;;;;5074404;28;20038;-66
2022/10/16 07:00:14;;;;;;;7.88;2.78;;;13.50;99.90;;;;;;5073292;28;20558;-68
2022/10/16 07:02:39;;;;;;;9.20;2.90;;;13.50;99.90;;;;;;5074220;28;20021;-67
2022/10/16 07:05:05;;;;;;;9.23;3.08;;;13.60;99.90;;;;;;5074564;28;20031;-67
2022/10/16 07:07:31;;;;;;;15.98;2.72;;;13.80;99.90;;;;;;5074177;28;20504;-66
2022/10/16 07:09:57;;;;;;;4.47;2.35;;;13.80;99.90;;;;;;5073480;28;20024;-67
2022/10/16 07:12:22;;;;;;;11.57;2.60;;;13.90;99.90;;;;;;5073957;28;20029;-66
2022/10/16 07:14:51;;;;;;;20.90;3.40;;;14.00;99.90;;;;;;5073474;28;20021;-67
2022/10/16 07:17:17;;;;;;;7.13;2.50;;;14.10;99.90;;;;;;5074115;28;20444;-70
2022/10/16 07:19:44;;;;;;;7.43;2.40;;;14.00;99.90;;;;;;5073024;28;20059;-67
2022/10/16 07:22:10;;;;;;;13.68;2.80;;;14.00;99.90;;;;;;5073113;28;20389;-67
2022/10/16 07:24:35;;;;;;;7.93;2.67;;;14.00;99.90;;;;;;5073617;28;20029;-69
2022/10/16 07:27:01;;;;;;;11.02;3.10;;;14.10;99.90;;;;;;5072334;28;20094;-68
2022/10/16 07:29:27;;;;;;;6.93;2.20;;;14.10;99.90;;;;;;5073488;28;20016;-69
2022/10/16 07:31:53;;;;;;;5.40;2.78;;;14.00;99.90;;;;;;5055512;28;20461;-68
2022/10/16 07:34:21;;;;;;;5.50;2.65;;;14.10;99.90;;;;;;5074072;28;20032;-66
2022/10/16 07:36:50;;;;;;;9.73;2.88;;;14.40;99.90;;;;;;5065047;28;20384;-66
2022/10/16 07:39:17;;;;;;;10.05;3.03;;;14.40;99.90;;;;;;5066812;28;20052;-68
2022/10/16 07:41:43;;;;;;;9.88;2.60;;;14.40;99.90;;;;;;5066329;28;20487;-66
2022/10/16 07:44:08;;;;;;;9.10;2.97;;;14.30;99.90;;;;;;5072643;28;20099;-66
2022/10/16 07:46:35;;;;;;;12.23;2.45;;;14.40;99.90;;;;;;5072928;28;20035;-66
2022/10/16 07:49:02;;;;;;;14.57;3.15;;;14.60;99.90;;;;;;5071765;28;20012;-66
2022/10/16 07:51:28;;;;;;;7.10;1.98;;;14.50;99.90;;;;;;5067403;28;20123;-70
2022/10/16 07:53:54;;;;;;;8.35;2.58;;;14.50;99.90;;;;;;5072589;28;20099;-73
2022/10/16 07:56:21;;;;;;;9.10;2.72;;;14.70;99.90;;;;;;5072943;28;20039;-70
2022/10/16 07:58:49;;;;;;;4.13;2.00;;;14.70;99.90;;;;;;5072438;28;20028;-71
2022/10/16 08:01:16;;;;;;;7.57;2.33;;;14.80;99.90;;;;;;5072714;28;20050;-70
2022/10/16 08:03:47;;;;;;;9.95;2.38;;;14.80;99.90;;;;;;5065525;28;20024;-71
2022/10/16 08:06:13;;;;;;;8.30;2.08;;;15.00;99.90;;;;;;5050499;28;20067;-67
2022/10/16 08:08:38;;;;;;;8.38;2.63;;;15.10;99.90;;;;;;5053111;28;20484;-69
2022/10/16 08:11:04;;;;;;;8.48;2.08;;;15.30;99.90;;;;;;5072321;28;20028;-70
2022/10/16 08:13:31;;;;;;;4.15;2.05;;;15.30;99.90;;;;;;5072992;28;20048;-69
2022/10/16 08:15:57;;;;;;;3.90;1.90;;;15.40;99.90;;;;;;5072519;28;20032;-69
2022/10/16 08:18:23;;;;;;;4.03;1.50;;;15.40;99.90;;;;;;5071470;28;20028;-69
2022/10/16 08:20:57;;;;;;;4.78;1.65;;;15.20;99.90;;;;;;5071562;28;20036;-65
2022/10/16 08:23:25;;;;;;;6.03;1.42;;;15.00;99.90;;;;;;5072359;28;20473;-66
2022/10/16 08:25:55;;;;;;;11.98;2.20;;;15.20;99.90;;;;;;5072404;28;20043;-65
2022/10/16 08:28:21;;;;;;;5.18;1.90;;;15.20;99.90;;;;;;5070024;28;20466;-66
2022/10/16 08:30:47;;;;;;;8.73;1.83;;;15.20;99.90;;;;;;5072002;28;20028;-65
2022/10/16 08:33:13;;;;;;;5.90;1.48;;;15.30;99.90;;;;;;5072433;28;20070;-66
2022/10/16 08:35:39;;;;;;;4.13;2.00;;;15.50;99.90;;;;;;5072275;28;20032;-66
2022/10/16 08:38:06;;;;;;;5.43;2.08;;;15.50;99.90;;;;;;5071087;28;20032;-66
2022/10/16 08:40:34;;;;;;;6.75;1.73;;;15.50;99.90;;;;;;5071704;28;20033;-66
2022/10/16 08:43:24;;;;;;;5.78;1.95;;;15.70;99.90;;;;;;5050267;28;20588;-66
2022/10/16 08:46:34;;;;;;;6.57;2.15;;;15.90;99.90;;;;;;5068715;28;20037;-66
2022/10/16 08:49:02;;;;;;;5.30;1.55;;;15.90;99.90;;;;;;5071708;28;20047;-66
2022/10/16 08:51:32;;;;;;;9.45;2.70;;;15.90;99.90;;;;;;5072776;28;20017;-65
2022/10/16 08:54:27;;;;;;;5.60;2.03;;;16.00;99.90;;;;;;5054680;28;20467;-66
2022/10/16 08:56:56;;;;;;;9.05;2.05;;;16.00;99.90;;;;;;5044909;28;20051;-66
2022/10/16 08:59:22;;;;;;;8.70;2.35;;;16.10;99.90;;;;;;5068664;28;20033;-67
2022/10/16 09:01:51;;;;;;;8.35;1.60;;;16.10;99.90;;;;;;5067266;28;20385;-65
2022/10/16 09:04:25;;;;;;;16.65;2.50;;;16.30;99.90;;;;;;5072329;28;20051;-66
2022/10/16 09:06:54;;;;;;;6.68;1.52;;;16.50;99.90;;;;;;5071845;28;20025;-66
2022/10/16 09:09:44;;;;;;;8.90;1.80;;;16.90;99.90;;;;;;5072856;28;20362;-66
2022/10/16 09:12:52;;;;;;;6.45;1.55;;;17.10;99.90;;;;;;5072255;28;20031;-66
2022/10/16 09:15:20;;;;;;;5.20;1.70;;;16.80;99.90;;;;;;5038387;28;20024;-66
2022/10/16 09:18:04;;;;;;;6.25;1.65;;;17.10;99.90;;;;;;5070570;28;20035;-66
2022/10/16 09:20:56;;;;;;;4.18;1.60;;;17.10;99.90;;;;;;5071021;28;20051;-66
2022/10/16 09:23:30;;;;;;;;;;;17.20;99.90;;;;;;5055592;28;20029;-66
2022/10/16 09:25:58;;;;;;;7.38;1.90;;;17.30;99.90;;;;;;5072913;28;19947;-66
2022/10/16 09:28:24;;;;;;;13.23;2.50;;;17.20;99.90;;;;;;5073008;28;20035;-65
2022/10/16 09:30:50;;;;;;;6.55;1.92;;;17.30;99.90;;;;;;5080950;28;20487;-66
2022/10/16 09:33:18;;;;;;;7.75;1.60;;;17.20;99.90;;;;;;5071324;28;20056;-65
2022/10/16 09:35:50;;;;;;;13.50;2.30;;;17.40;99.90;;;;;;5074648;28;20396;-66
2022/10/16 09:38:27;;;;;;;15.35;1.70;;;17.20;99.90;;;;;;5057569;28;20101;-66
2022/10/16 09:40:55;;;;;;;11.70;2.30;;;17.20;99.90;;;;;;5073369;28;20473;-65
2022/10/16 09:43:24;;;;;;;12.60;2.13;;;17.30;99.90;;;;;;5074817;28;20021;-67
2022/10/16 09:46:21;;;;;;;11.32;2.35;;;17.40;99.90;;;;;;5074899;28;20039;-66
2022/10/16 09:48:49;;;;;;;8.80;1.95;;;17.40;99.90;;;;;;5074858;28;20385;-65
2022/10/16 09:51:25;;;;;;;11.82;1.70;;;17.50;99.90;;;;;;5061600;28;20091;-67
2022/10/16 09:54:00;;;;;;;25.70;2.38;;;18.20;99.90;;;;;;5074190;28;20037;-66
2022/10/16 09:56:36;;;;;;;12.90;2.28;;;18.30;99.90;;;;;;5074711;28;20021;-67
2022/10/16 09:59:10;;;;;;;9.32;2.35;;;18.40;99.90;;;;;;5074522;28;20123;-66
2022/10/16 10:01:51;;;;;;;9.52;1.92;;;18.80;99.90;;;;;;5070627;28;20368;-67
2022/10/16 10:04:19;;;;;;;9.77;2.25;;;18.80;99.90;;;;;;5074805;28;20021;-66
2022/10/16 10:06:55;;;;;;;10.05;2.55;;;18.20;99.90;;;;;;5074663;28;20465;-67
2022/10/16 10:09:37;;;;;;;13.50;2.40;;;18.30;99.90;;;;;;5074676;28;20047;-66
2022/10/16 10:12:04;;;;;;;;;;;18.40;99.90;;;;;;5069404;28;20469;-67
2022/10/16 10:14:37;;;;;;;10.20;2.33;;;18.40;99.90;;;;;;5077954;28;19981;-70
2022/10/16 10:17:12;;;;;;;8.18;1.90;;;17.90;99.90;;;;;;5072893;28;20089;-70
2022/10/16 10:19:46;;;;;;;17.23;3.03;;;18.20;99.90;;;;;;5074611;28;20135;-69
2022/10/16 10:22:24;;;;;;;6.53;1.70;;;18.70;99.90;;;;;;5073444;28;20028;-68
2022/10/16 10:25:08;;;;;;;15.60;2.78;;;18.50;99.90;;;;;;5074862;28;20393;-71
2022/10/16 10:27:55;;;;;;;12.25;2.33;;;18.80;99.90;;;;;;5064479;28;20040;-71
2022/10/16 10:30:40;;;;;;;12.80;2.15;;;18.60;99.90;;;;;;5074728;28;20020;-70
2022/10/16 10:33:26;;;;;;;9.93;1.80;;;18.00;99.90;;;;;;5075170;28;20020;-71
2022/10/16 10:35:55;;;;;;;11.80;2.28;;;18.60;99.90;;;;;;5074086;28;20066;-72
2022/10/16 10:38:45;;;;;;;13.10;2.13;;;18.60;99.90;;;;;;5074956;28;20035;-72
2022/10/16 10:41:25;;;;;;;8.70;2.60;;;18.90;99.90;;;;;;5064674;28;20032;-72
2022/10/16 10:44:30;;;;;;;13.38;2.55;;;19.00;99.90;;;;;;5074827;28;20024;-72
2022/10/16 10:47:34;;;;;;;18.85;2.83;;;19.80;99.90;;;;;;5074782;28;20051;-72
2022/10/16 10:50:24;;;;;;;17.67;2.65;;;19.30;99.90;;;;;;5067269;28;20059;-72
2022/10/16 10:53:05;;;;;;;16.02;2.33;;;20.10;99.90;;;;;;5073993;28;20024;-72
2022/10/16 10:55:50;;;;;;;10.93;2.45;;;20.10;99.90;;;;;;5073961;28;20035;-72
2022/10/16 10:58:34;;;;;;;13.57;2.58;;;20.10;99.90;;;;;;5075472;28;20078;-72
2022/10/16 11:01:14;;;;;;;9.18;2.13;;;20.60;99.90;;;;;;5073522;28;20036;-73
2022/10/16 11:04:09;;;;;;;9.48;2.20;;;22.80;99.90;;;;;;5073785;28;20108;-72
2022/10/16 11:06:38;;;;;;;12.25;1.88;;;23.30;99.90;;;;;;4986762;28;20038;-72
2022/10/16 11:09:12;;;;;;;9.25;2.33;;;23.10;99.90;;;;;;5072915;28;20115;-72
2022/10/16 11:11:44;;;;;;;12.45;2.35;;;22.20;99.90;;;;;;5059994;28;20396;-72
2022/10/16 11:14:10;;;;;;;;;;;21.40;99.90;;;;;;5069051;28;20036;-69
2022/10/16 11:16:43;;;;;;;14.02;1.42;;;22.70;99.90;;;;;;5076133;28;20265;-71
2022/10/16 11:19:24;;;;;;;9.82;2.38;;;22.80;99.90;;;;;;5078731;28;20020;-72
2022/10/16 11:22:12;;;;;;;12.98;2.03;;;22.10;99.90;;;;;;5085608;28;20035;-71
2022/10/16 11:24:50;;;;;;;7.47;2.33;;;22.20;99.90;;;;;;5086138;28;20012;-71
2022/10/16 11:27:25;;;;;;;11.10;2.30;;;22.80;99.90;;;;;;5081315;28;20037;-72
2022/10/16 11:30:01;;;;;;;7.32;2.00;;;22.40;99.90;;;;;;5079872;28;20110;-72
2022/10/16 11:32:47;;;;;;;8.23;1.50;;;22.10;99.90;;;;;;5069089;28;20381;-71
2022/10/16 11:35:32;;;;;;;11.00;2.33;;;22.40;99.90;;;;;;5048362;28;20547;-68
2022/10/16 11:38:02;;;;;;;13.82;2.00;;;21.60;99.90;;;;;;5059196;28;20056;-67
2022/10/16 11:40:30;;;;;;;10.57;2.60;;;22.40;99.90;;;;;;5065208;28;20036;-70
2022/10/16 11:43:10;;;;;;;8.20;1.65;;;22.90;99.90;;;;;;5068713;28;20382;-73
2022/10/16 11:45:46;;;;;;;11.98;1.85;;;23.20;99.90;;;;;;5067328;28;20039;-68
2022/10/16 11:48:27;;;;;;;8.75;1.70;;;23.10;99.80;;;;;;5072510;28;20529;-69
2022/10/16 11:51:02;;;;;;;6.90;1.80;;;22.80;99.90;;;;;;5073241;28;20037;-68
2022/10/16 11:53:46;;;;;;;10.80;1.95;;;22.90;99.90;;;;;;5073472;28;20020;-68
2022/10/16 11:56:15;;;;;;;8.82;2.42;;;22.40;99.90;;;;;;5073297;28;20461;-68
2022/10/16 11:59:02;;;;;;;11.30;2.20;;;21.40;99.90;;;;;;5073436;28;20033;-67
2022/10/16 12:01:53;;;;;;;9.57;2.42;;;21.00;99.90;;;;;;5073698;28;20040;-67
2022/10/16 12:04:34;;;;;;;15.60;2.65;;;21.40;99.90;;;;;;5073538;28;20040;-67
2022/10/16 12:07:05;;;;;;;11.18;2.40;;;22.30;99.90;;;;;;5073419;28;20409;-68
2022/10/16 12:09:34;;;;;;;9.60;2.17;;;24.00;99.90;;;;;;5073514;28;20036;-68
2022/10/16 12:12:00;;;;;;;9.93;2.13;;;23.50;99.10;;;;;;5054956;28;20017;-69
2022/10/16 12:14:32;;;;;;;11.10;1.85;;;22.40;99.90;;;;;;5073312;28;20032;-68
2022/10/16 12:17:23;;;;;;;15.40;2.20;;;22.20;99.90;;;;;;5073132;28;20028;-68
2022/10/16 12:20:12;;;;;;;10.40;1.95;;;24.20;99.20;;;;;;5073246;28;20029;-68
2022/10/16 12:22:54;;;;;;;5.65;1.80;;;25.80;97.70;;;;;;5073148;28;20492;-68
2022/10/16 12:25:34;;;;;;;9.15;1.90;;;27.30;94.70;;;;;;5072946;28;20051;-68
2022/10/16 12:28:01;;;;;;;4.95;1.55;;;26.80;94.40;;;;;;5072804;28;20469;-69
2022/10/16 12:30:29;;;;;;;10.93;2.67;;;26.40;94.10;;;;;;5073193;28;20534;-68
2022/10/16 12:33:01;;;;;;;11.15;2.08;;;26.30;94.50;;;;;;5038395;28;20125;-68
2022/10/16 12:35:31;;;;;;;7.32;1.70;;;25.90;95.10;;;;;;5073000;28;20021;-68
2022/10/16 12:38:18;;;;;;;7.28;1.60;;;25.70;95.00;;;;;;5072881;28;20032;-68
2022/10/16 12:40:47;;;;;;;6.63;1.83;;;26.20;94.80;;;;;;5072550;28;20051;-68
2022/10/16 12:43:36;;;;;;;5.88;1.80;;;23.90;97.00;;;;;;5073128;28;20029;-68
2022/10/16 12:46:19;;;;;;;7.57;1.67;;;22.30;99.30;;;;;;5072921;28;20035;-68
2022/10/16 12:48:46;;;;;;;10.15;1.92;;;21.50;99.90;;;;;;5072769;28;20040;-68
2022/10/16 12:51:25;;;;;;;9.68;1.85;;;21.90;99.90;;;;;;5072674;28;20501;-68
2022/10/16 12:54:25;;;;;;;10.18;1.50;;;22.30;99.90;;;;;;5072811;28;20492;-68
2022/10/16 12:57:12;;;;;;;5.70;1.63;;;23.40;98.90;;;;;;5072259;28;20028;-68
2022/10/16 12:59:53;;;;;;;12.45;1.88;;;23.60;98.50;;;;;;5072450;28;20028;-67
2022/10/16 13:02:33;;;;;;;13.80;2.05;;;25.20;96.70;;;;;;5072807;28;20036;-68
2022/10/16 13:05:09;;;;;;;10.50;1.60;;;26.40;95.00;;;;;;5072462;28;20029;-68
2022/10/16 13:07:50;;;;;;;4.13;1.30;;;27.50;92.90;;;;;;5054806;28;20078;-68